sensor_id;sensor_type;location;lat;lon;timestamp;P1;durP1;ratioP1;P2;durP2;ratioP2
35797;SDS011;21918;49.940;7.774;2022-08-21T00:02:27;3.30;;;2.60;;
35797;SDS011;21918;49.940;7.774;2022-08-21T00:04:55;4.38;;;2.28;;
35797;SDS011;21918;49.940;7.774;2022-08-21T00:07:22;4.82;;;2.65;;
35797;SDS011;21918;49.940;7.774;2022-08-21T00:09:49;4.05;;;2.70;;
35797;SDS011;21918;49.940;7.774;2022-08-21T00:12:16;3.28;;;2.33;;
35797;SDS011;21918;49.940;7.774;2022-08-21T00:14:42;2.80;;;2.38;;
35797;SDS011;21918;49.940;7.774;2022-08-21T00:17:09;3.88;;;2.58;;
35797;SDS011;21918;49.940;7.774;2022-08-21T00:19:36;3.30;;;2.55;;
35797;SDS011;21918;49.940;7.774;2022-08-21T00:22:04;3.25;;;2.63;;
35797;SDS011;21918;49.940;7.774;2022-08-21T00:24:31;3.95;;;2.70;;
35797;SDS011;21918;49.940;7.774;2022-08-21T00:26:57;2.78;;;2.40;;
35797;SDS011;21918;49.940;7.774;2022-08-21T00:29:24;3.58;;;2.60;;
35797;SDS011;21918;49.940;7.774;2022-08-21T00:31:51;4.10;;;2.67;;
35797;SDS011;21918;49.940;7.774;2022-08-21T00:34:18;4.30;;;2.28;;
35797;SDS011;21918;49.940;7.774;2022-08-21T00:36:45;3.25;;;2.65;;
35797;SDS011;21918;49.940;7.774;2022-08-21T00:39:13;2.95;;;2.20;;
35797;SDS011;21918;49.940;7.774;2022-08-21T00:41:40;3.38;;;2.28;;
35797;SDS011;21918;49.940;7.774;2022-08-21T00:44:08;4.75;;;2.47;;
35797;SDS011;21918;49.940;7.774;2022-08-21T00:46:45;5.20;;;2.70;;
35797;SDS011;21918;49.940;7.774;2022-08-21T00:49:12;4.38;;;3.22;;
35797;SDS011;21918;49.940;7.774;2022-08-21T00:51:49;4.97;;;3.05;;
35797;SDS011;21918;49.940;7.774;2022-08-21T00:54:22;6.68;;;3.22;;
35797;SDS011;21918;49.940;7.774;2022-08-21T00:56:52;3.05;;;2.40;;
35797;SDS011;21918;49.940;7.774;2022-08-21T00:59:22;3.63;;;3.13;;
35797;SDS011;21918;49.940;7.774;2022-08-21T01:01:50;2.58;;;2.10;;
35797;SDS011;21918;49.940;7.774;2022-08-21T01:04:17;5.40;;;2.35;;
35797;SDS011;21918;49.940;7.774;2022-08-21T01:06:45;3.42;;;2.40;;
35797;SDS011;21918;49.940;7.774;2022-08-21T01:09:12;2.75;;;2.33;;
35797;SDS011;21918;49.940;7.774;2022-08-21T01:11:41;2.92;;;2.42;;
35797;SDS011;21918;49.940;7.774;2022-08-21T01:14:10;3.83;;;2.60;;
35797;SDS011;21918;49.940;7.774;2022-08-21T01:16:39;4.18;;;2.65;;
35797;SDS011;21918;49.940;7.774;2022-08-21T01:19:08;2.78;;;2.35;;
35797;SDS011;21918;49.940;7.774;2022-08-21T01:21:38;3.55;;;2.63;;
35797;SDS011;21918;49.940;7.774;2022-08-21T01:24:05;3.13;;;2.40;;
35797;SDS011;21918;49.940;7.774;2022-08-21T01:26:32;2.60;;;2.17;;
35797;SDS011;21918;49.940;7.774;2022-08-21T01:29:02;3.40;;;2.47;;
35797;SDS011;21918;49.940;7.774;2022-08-21T01:31:35;3.03;;;2.10;;
35797;SDS011;21918;49.940;7.774;2022-08-21T01:34:02;3.05;;;2.78;;
35797;SDS011;21918;49.940;7.774;2022-08-21T01:36:32;3.67;;;2.20;;
35797;SDS011;21918;49.940;7.774;2022-08-21T01:39:01;3.90;;;2.70;;
35797;SDS011;21918;49.940;7.774;2022-08-21T01:41:29;3.60;;;2.65;;
35797;SDS011;21918;49.940;7.774;2022-08-21T01:43:56;3.85;;;2.40;;
35797;SDS011;21918;49.940;7.774;2022-08-21T01:46:22;5.53;;;3.20;;
35797;SDS011;21918;49.940;7.774;2022-08-21T01:48:49;5.18;;;2.60;;
35797;SDS011;21918;49.940;7.774;2022-08-21T01:51:17;3.45;;;2.38;;
35797;SDS011;21918;49.940;7.774;2022-08-21T01:53:44;2.22;;;2.03;;
35797;SDS011;21918;49.940;7.774;2022-08-21T01:56:13;3.67;;;2.85;;
35797;SDS011;21918;49.940;7.774;2022-08-21T01:58:41;4.20;;;2.33;;
35797;SDS011;21918;49.940;7.774;2022-08-21T02:01:09;3.88;;;2.40;;
35797;SDS011;21918;49.940;7.774;2022-08-21T02:03:36;3.25;;;2.05;;
35797;SDS011;21918;49.940;7.774;2022-08-21T02:06:04;3.55;;;2.58;;
35797;SDS011;21918;49.940;7.774;2022-08-21T02:08:32;4.15;;;2.47;;
35797;SDS011;21918;49.940;7.774;2022-08-21T02:11:00;4.70;;;3.15;;
35797;SDS011;21918;49.940;7.774;2022-08-21T02:13:29;4.88;;;2.30;;
35797;SDS011;21918;49.940;7.774;2022-08-21T02:15:55;4.75;;;2.60;;
35797;SDS011;21918;49.940;7.774;2022-08-21T02:18:22;5.72;;;2.85;;
35797;SDS011;21918;49.940;7.774;2022-08-21T02:20:49;2.50;;;2.30;;
35797;SDS011;21918;49.940;7.774;2022-08-21T02:23:16;3.28;;;2.35;;
35797;SDS011;21918;49.940;7.774;2022-08-21T02:25:43;3.10;;;2.60;;
35797;SDS011;21918;49.940;7.774;2022-08-21T02:28:11;3.35;;;2.15;;
35797;SDS011;21918;49.940;7.774;2022-08-21T02:30:42;5.78;;;2.47;;
35797;SDS011;21918;49.940;7.774;2022-08-21T02:33:11;3.10;;;2.50;;
35797;SDS011;21918;49.940;7.774;2022-08-21T02:35:40;3.78;;;2.25;;
35797;SDS011;21918;49.940;7.774;2022-08-21T02:38:09;3.78;;;2.67;;
35797;SDS011;21918;49.940;7.774;2022-08-21T02:40:38;2.80;;;2.60;;
35797;SDS011;21918;49.940;7.774;2022-08-21T02:43:05;3.25;;;2.58;;
35797;SDS011;21918;49.940;7.774;2022-08-21T02:45:33;2.85;;;2.58;;
35797;SDS011;21918;49.940;7.774;2022-08-21T02:48:03;4.60;;;2.50;;
35797;SDS011;21918;49.940;7.774;2022-08-21T02:50:32;2.30;;;2.10;;
35797;SDS011;21918;49.940;7.774;2022-08-21T02:53:01;4.70;;;2.88;;
35797;SDS011;21918;49.940;7.774;2022-08-21T02:55:29;2.75;;;2.30;;
35797;SDS011;21918;49.940;7.774;2022-08-21T02:57:57;3.67;;;3.13;;
35797;SDS011;21918;49.940;7.774;2022-08-21T03:00:25;3.05;;;2.75;;
35797;SDS011;21918;49.940;7.774;2022-08-21T03:02:54;4.53;;;2.80;;
35797;SDS011;21918;49.940;7.774;2022-08-21T03:05:23;4.25;;;3.33;;
35797;SDS011;21918;49.940;7.774;2022-08-21T03:07:50;2.80;;;2.60;;
35797;SDS011;21918;49.940;7.774;2022-08-21T03:10:18;4.82;;;2.70;;
35797;SDS011;21918;49.940;7.774;2022-08-21T03:12:46;3.40;;;2.25;;
35797;SDS011;21918;49.940;7.774;2022-08-21T03:15:14;3.67;;;2.25;;
35797;SDS011;21918;49.940;7.774;2022-08-21T03:17:43;5.20;;;3.13;;
35797;SDS011;21918;49.940;7.774;2022-08-21T03:20:11;4.78;;;2.78;;
35797;SDS011;21918;49.940;7.774;2022-08-21T03:22:42;4.85;;;2.53;;
35797;SDS011;21918;49.940;7.774;2022-08-21T03:25:08;5.65;;;3.25;;
35797;SDS011;21918;49.940;7.774;2022-08-21T03:27:36;3.85;;;2.20;;
35797;SDS011;21918;49.940;7.774;2022-08-21T03:30:03;3.58;;;3.08;;
35797;SDS011;21918;49.940;7.774;2022-08-21T03:32:31;4.05;;;3.30;;
35797;SDS011;21918;49.940;7.774;2022-08-21T03:34:58;5.25;;;2.50;;
35797;SDS011;21918;49.940;7.774;2022-08-21T03:37:25;3.08;;;2.78;;
35797;SDS011;21918;49.940;7.774;2022-08-21T03:39:54;3.50;;;2.80;;
35797;SDS011;21918;49.940;7.774;2022-08-21T03:42:21;3.00;;;2.70;;
35797;SDS011;21918;49.940;7.774;2022-08-21T03:44:47;5.20;;;2.60;;
35797;SDS011;21918;49.940;7.774;2022-08-21T03:47:14;3.55;;;2.58;;
35797;SDS011;21918;49.940;7.774;2022-08-21T03:49:42;4.10;;;2.83;;
35797;SDS011;21918;49.940;7.774;2022-08-21T03:52:08;4.88;;;3.25;;
35797;SDS011;21918;49.940;7.774;2022-08-21T03:54:35;3.25;;;2.30;;
35797;SDS011;21918;49.940;7.774;2022-08-21T03:57:03;5.97;;;2.55;;
35797;SDS011;21918;49.940;7.774;2022-08-21T03:59:30;3.33;;;3.00;;
35797;SDS011;21918;49.940;7.774;2022-08-21T04:01:58;5.22;;;2.97;;
35797;SDS011;21918;49.940;7.774;2022-08-21T04:04:27;5.03;;;2.75;;
35797;SDS011;21918;49.940;7.774;2022-08-21T04:06:54;4.03;;;3.25;;
35797;SDS011;21918;49.940;7.774;2022-08-21T04:09:21;3.55;;;3.25;;
35797;SDS011;21918;49.940;7.774;2022-08-21T04:11:49;4.10;;;2.83;;
35797;SDS011;21918;49.940;7.774;2022-08-21T04:14:19;5.13;;;2.97;;
35797;SDS011;21918;49.940;7.774;2022-08-21T04:16:46;4.88;;;2.97;;
35797;SDS011;21918;49.940;7.774;2022-08-21T04:19:13;3.35;;;3.05;;
35797;SDS011;21918;49.940;7.774;2022-08-21T04:21:41;3.95;;;3.13;;
35797;SDS011;21918;49.940;7.774;2022-08-21T04:24:09;2.85;;;2.38;;
35797;SDS011;21918;49.940;7.774;2022-08-21T04:26:37;2.88;;;2.58;;
35797;SDS011;21918;49.940;7.774;2022-08-21T04:29:05;5.18;;;2.97;;
35797;SDS011;21918;49.940;7.774;2022-08-21T04:31:34;4.18;;;2.75;;
35797;SDS011;21918;49.940;7.774;2022-08-21T04:34:02;3.17;;;2.75;;
35797;SDS011;21918;49.940;7.774;2022-08-21T04:36:30;4.20;;;2.85;;
35797;SDS011;21918;49.940;7.774;2022-08-21T04:38:56;4.20;;;2.83;;
35797;SDS011;21918;49.940;7.774;2022-08-21T04:41:23;3.92;;;3.45;;
35797;SDS011;21918;49.940;7.774;2022-08-21T04:43:50;3.63;;;3.28;;
35797;SDS011;21918;49.940;7.774;2022-08-21T04:46:16;5.72;;;3.05;;
35797;SDS011;21918;49.940;7.774;2022-08-21T04:48:45;3.35;;;3.05;;
35797;SDS011;21918;49.940;7.774;2022-08-21T04:51:13;5.03;;;2.90;;
35797;SDS011;21918;49.940;7.774;2022-08-21T04:53:44;2.83;;;2.63;;
35797;SDS011;21918;49.940;7.774;2022-08-21T04:56:15;6.38;;;3.00;;
35797;SDS011;21918;49.940;7.774;2022-08-21T04:58:46;6.88;;;3.00;;
35797;SDS011;21918;49.940;7.774;2022-08-21T05:01:15;4.75;;;3.30;;
35797;SDS011;21918;49.940;7.774;2022-08-21T05:03:46;3.70;;;3.40;;
35797;SDS011;21918;49.940;7.774;2022-08-21T05:06:15;6.63;;;3.00;;
35797;SDS011;21918;49.940;7.774;2022-08-21T05:08:42;4.20;;;3.72;;
35797;SDS011;21918;49.940;7.774;2022-08-21T05:11:11;4.95;;;3.50;;
35797;SDS011;21918;49.940;7.774;2022-08-21T05:13:38;4.35;;;3.30;;
35797;SDS011;21918;49.940;7.774;2022-08-21T05:16:06;6.07;;;3.92;;
35797;SDS011;21918;49.940;7.774;2022-08-21T05:18:33;4.18;;;3.20;;
35797;SDS011;21918;49.940;7.774;2022-08-21T05:21:01;4.53;;;3.35;;
35797;SDS011;21918;49.940;7.774;2022-08-21T05:23:29;3.10;;;2.78;;
35797;SDS011;21918;49.940;7.774;2022-08-21T05:25:55;5.32;;;3.53;;
35797;SDS011;21918;49.940;7.774;2022-08-21T05:28:23;4.03;;;3.55;;
35797;SDS011;21918;49.940;7.774;2022-08-21T05:30:50;3.75;;;3.15;;
35797;SDS011;21918;49.940;7.774;2022-08-21T05:33:17;4.57;;;2.95;;
35797;SDS011;21918;49.940;7.774;2022-08-21T05:35:44;5.45;;;4.28;;
35797;SDS011;21918;49.940;7.774;2022-08-21T05:38:12;5.68;;;3.38;;
35797;SDS011;21918;49.940;7.774;2022-08-21T05:40:38;5.07;;;3.78;;
35797;SDS011;21918;49.940;7.774;2022-08-21T05:43:05;5.22;;;3.35;;
35797;SDS011;21918;49.940;7.774;2022-08-21T05:45:32;3.20;;;2.88;;
35797;SDS011;21918;49.940;7.774;2022-08-21T05:48:05;3.70;;;3.17;;
35797;SDS011;21918;49.940;7.774;2022-08-21T05:50:34;4.38;;;3.97;;
35797;SDS011;21918;49.940;7.774;2022-08-21T05:53:02;5.32;;;3.25;;
35797;SDS011;21918;49.940;7.774;2022-08-21T05:55:30;4.68;;;3.30;;
35797;SDS011;21918;49.940;7.774;2022-08-21T05:57:57;4.68;;;3.92;;
35797;SDS011;21918;49.940;7.774;2022-08-21T06:00:23;5.03;;;3.00;;
35797;SDS011;21918;49.940;7.774;2022-08-21T06:02:50;3.45;;;3.15;;
35797;SDS011;21918;49.940;7.774;2022-08-21T06:05:17;5.93;;;3.90;;
35797;SDS011;21918;49.940;7.774;2022-08-21T06:07:44;4.03;;;3.58;;
35797;SDS011;21918;49.940;7.774;2022-08-21T06:10:11;4.32;;;3.60;;
35797;SDS011;21918;49.940;7.774;2022-08-21T06:12:40;4.35;;;2.95;;
35797;SDS011;21918;49.940;7.774;2022-08-21T06:15:07;5.60;;;3.58;;
35797;SDS011;21918;49.940;7.774;2022-08-21T06:17:34;7.47;;;3.72;;
35797;SDS011;21918;49.940;7.774;2022-08-21T06:20:01;3.92;;;3.17;;
35797;SDS011;21918;49.940;7.774;2022-08-21T06:22:30;3.50;;;2.90;;
35797;SDS011;21918;49.940;7.774;2022-08-21T06:24:57;4.95;;;3.10;;
35797;SDS011;21918;49.940;7.774;2022-08-21T06:27:24;3.25;;;2.83;;
35797;SDS011;21918;49.940;7.774;2022-08-21T06:29:52;3.35;;;2.95;;
35797;SDS011;21918;49.940;7.774;2022-08-21T06:32:18;4.80;;;2.92;;
35797;SDS011;21918;49.940;7.774;2022-08-21T06:34:45;2.88;;;2.67;;
35797;SDS011;21918;49.940;7.774;2022-08-21T06:37:12;5.05;;;3.30;;
35797;SDS011;21918;49.940;7.774;2022-08-21T06:39:39;3.35;;;2.92;;
35797;SDS011;21918;49.940;7.774;2022-08-21T06:42:05;4.10;;;2.80;;
35797;SDS011;21918;49.940;7.774;2022-08-21T06:44:32;3.88;;;3.30;;
35797;SDS011;21918;49.940;7.774;2022-08-21T06:47:00;6.22;;;4.03;;
35797;SDS011;21918;49.940;7.774;2022-08-21T06:49:27;7.05;;;3.70;;
35797;SDS011;21918;49.940;7.774;2022-08-21T06:51:53;4.85;;;3.33;;
35797;SDS011;21918;49.940;7.774;2022-08-21T06:54:20;3.95;;;3.60;;
35797;SDS011;21918;49.940;7.774;2022-08-21T06:56:47;6.20;;;4.00;;
35797;SDS011;21918;49.940;7.774;2022-08-21T06:59:13;4.65;;;3.50;;
35797;SDS011;21918;49.940;7.774;2022-08-21T07:01:40;4.82;;;3.53;;
35797;SDS011;21918;49.940;7.774;2022-08-21T07:04:08;5.30;;;4.40;;
35797;SDS011;21918;49.940;7.774;2022-08-21T07:06:35;7.15;;;3.63;;
35797;SDS011;21918;49.940;7.774;2022-08-21T07:09:02;6.28;;;3.95;;
35797;SDS011;21918;49.940;7.774;2022-08-21T07:11:29;4.20;;;3.53;;
35797;SDS011;21918;49.940;7.774;2022-08-21T07:13:56;5.60;;;3.28;;
35797;SDS011;21918;49.940;7.774;2022-08-21T07:16:23;4.72;;;3.78;;
35797;SDS011;21918;49.940;7.774;2022-08-21T07:18:50;4.88;;;3.83;;
35797;SDS011;21918;49.940;7.774;2022-08-21T07:21:19;4.93;;;4.43;;
35797;SDS011;21918;49.940;7.774;2022-08-21T07:23:47;6.70;;;3.83;;
35797;SDS011;21918;49.940;7.774;2022-08-21T07:26:17;3.58;;;3.25;;
35797;SDS011;21918;49.940;7.774;2022-08-21T07:28:45;8.50;;;4.25;;
35797;SDS011;21918;49.940;7.774;2022-08-21T07:31:13;5.68;;;3.95;;
35797;SDS011;21918;49.940;7.774;2022-08-21T07:33:41;8.77;;;3.92;;
35797;SDS011;21918;49.940;7.774;2022-08-21T07:36:08;7.40;;;3.53;;
35797;SDS011;21918;49.940;7.774;2022-08-21T07:38:37;6.28;;;3.50;;
35797;SDS011;21918;49.940;7.774;2022-08-21T07:41:06;6.57;;;4.10;;
35797;SDS011;21918;49.940;7.774;2022-08-21T07:43:39;8.00;;;3.78;;
35797;SDS011;21918;49.940;7.774;2022-08-21T07:46:06;8.02;;;4.53;;
35797;SDS011;21918;49.940;7.774;2022-08-21T07:48:32;6.05;;;4.00;;
35797;SDS011;21918;49.940;7.774;2022-08-21T07:51:01;5.68;;;4.25;;
35797;SDS011;21918;49.940;7.774;2022-08-21T07:53:31;6.38;;;3.85;;
35797;SDS011;21918;49.940;7.774;2022-08-21T07:56:00;3.80;;;3.33;;
35797;SDS011;21918;49.940;7.774;2022-08-21T07:58:26;5.45;;;4.60;;
35797;SDS011;21918;49.940;7.774;2022-08-21T08:00:53;4.85;;;4.00;;
35797;SDS011;21918;49.940;7.774;2022-08-21T08:03:20;6.25;;;4.18;;
35797;SDS011;21918;49.940;7.774;2022-08-21T08:05:47;7.32;;;4.03;;
35797;SDS011;21918;49.940;7.774;2022-08-21T08:08:13;7.70;;;4.10;;
35797;SDS011;21918;49.940;7.774;2022-08-21T08:10:40;7.00;;;4.00;;
35797;SDS011;21918;49.940;7.774;2022-08-21T08:13:09;5.20;;;3.13;;
35797;SDS011;21918;49.940;7.774;2022-08-21T08:15:36;12.30;;;3.95;;
35797;SDS011;21918;49.940;7.774;2022-08-21T08:18:03;7.97;;;4.05;;
35797;SDS011;21918;49.940;7.774;2022-08-21T08:20:29;7.55;;;3.38;;
35797;SDS011;21918;49.940;7.774;2022-08-21T08:22:58;9.63;;;3.42;;
35797;SDS011;21918;49.940;7.774;2022-08-21T08:25:25;6.53;;;3.80;;
35797;SDS011;21918;49.940;7.774;2022-08-21T08:27:52;6.05;;;2.92;;
35797;SDS011;21918;49.940;7.774;2022-08-21T08:30:21;6.45;;;3.85;;
35797;SDS011;21918;49.940;7.774;2022-08-21T08:32:49;5.68;;;3.58;;
35797;SDS011;21918;49.940;7.774;2022-08-21T08:35:16;7.18;;;3.92;;
35797;SDS011;21918;49.940;7.774;2022-08-21T08:37:43;6.80;;;3.75;;
35797;SDS011;21918;49.940;7.774;2022-08-21T08:40:12;7.20;;;3.63;;
35797;SDS011;21918;49.940;7.774;2022-08-21T08:42:44;9.75;;;3.50;;
35797;SDS011;21918;49.940;7.774;2022-08-21T08:45:15;8.57;;;4.43;;
35797;SDS011;21918;49.940;7.774;2022-08-21T08:47:47;7.28;;;4.50;;
35797;SDS011;21918;49.940;7.774;2022-08-21T08:50:17;5.70;;;3.80;;
35797;SDS011;21918;49.940;7.774;2022-08-21T08:52:49;6.65;;;3.33;;
35797;SDS011;21918;49.940;7.774;2022-08-21T08:55:23;3.92;;;3.03;;
35797;SDS011;21918;49.940;7.774;2022-08-21T08:57:54;7.18;;;2.47;;
35797;SDS011;21918;49.940;7.774;2022-08-21T09:00:22;5.38;;;3.78;;
35797;SDS011;21918;49.940;7.774;2022-08-21T09:02:51;5.93;;;3.20;;
35797;SDS011;21918;49.940;7.774;2022-08-21T09:05:21;4.88;;;2.75;;
35797;SDS011;21918;49.940;7.774;2022-08-21T09:07:57;4.75;;;3.22;;
35797;SDS011;21918;49.940;7.774;2022-08-21T09:10:43;4.03;;;3.38;;
35797;SDS011;21918;49.940;7.774;2022-08-21T09:13:19;5.35;;;2.80;;
35797;SDS011;21918;49.940;7.774;2022-08-21T09:15:53;7.75;;;3.42;;
35797;SDS011;21918;49.940;7.774;2022-08-21T09:18:31;5.03;;;3.17;;
35797;SDS011;21918;49.940;7.774;2022-08-21T09:21:15;7.65;;;3.17;;
35797;SDS011;21918;49.940;7.774;2022-08-21T09:23:47;6.60;;;3.30;;
35797;SDS011;21918;49.940;7.774;2022-08-21T09:26:22;7.07;;;3.30;;
35797;SDS011;21918;49.940;7.774;2022-08-21T09:28:51;5.20;;;3.13;;
35797;SDS011;21918;49.940;7.774;2022-08-21T09:31:24;4.75;;;3.25;;
35797;SDS011;21918;49.940;7.774;2022-08-21T09:34:01;6.40;;;3.40;;
35797;SDS011;21918;49.940;7.774;2022-08-21T09:36:33;6.63;;;2.85;;
35797;SDS011;21918;49.940;7.774;2022-08-21T09:39:04;3.30;;;2.22;;
35797;SDS011;21918;49.940;7.774;2022-08-21T09:41:32;5.18;;;2.90;;
35797;SDS011;21918;49.940;7.774;2022-08-21T09:44:01;8.88;;;2.40;;
35797;SDS011;21918;49.940;7.774;2022-08-21T09:46:29;6.28;;;2.97;;
35797;SDS011;21918;49.940;7.774;2022-08-21T09:48:58;6.03;;;2.40;;
35797;SDS011;21918;49.940;7.774;2022-08-21T09:51:29;3.25;;;2.60;;
35797;SDS011;21918;49.940;7.774;2022-08-21T09:54:00;5.28;;;2.90;;
35797;SDS011;21918;49.940;7.774;2022-08-21T09:56:53;5.28;;;3.08;;
35797;SDS011;21918;49.940;7.774;2022-08-21T09:59:40;4.22;;;2.35;;
35797;SDS011;21918;49.940;7.774;2022-08-21T10:04:57;5.35;;;3.15;;
35797;SDS011;21918;49.940;7.774;2022-08-21T10:07:28;5.18;;;2.97;;
35797;SDS011;21918;49.940;7.774;2022-08-21T10:10:00;3.15;;;2.55;;
35797;SDS011;21918;49.940;7.774;2022-08-21T10:12:31;9.25;;;2.67;;
35797;SDS011;21918;49.940;7.774;2022-08-21T10:15:07;6.53;;;3.08;;
35797;SDS011;21918;49.940;7.774;2022-08-21T10:17:48;5.32;;;2.90;;
35797;SDS011;21918;49.940;7.774;2022-08-21T10:20:27;5.28;;;2.88;;
35797;SDS011;21918;49.940;7.774;2022-08-21T10:23:04;6.95;;;2.40;;
35797;SDS011;21918;49.940;7.774;2022-08-21T10:25:40;3.38;;;2.45;;
35797;SDS011;21918;49.940;7.774;2022-08-21T10:28:12;5.15;;;2.63;;
35797;SDS011;21918;49.940;7.774;2022-08-21T10:30:46;6.38;;;2.60;;
35797;SDS011;21918;49.940;7.774;2022-08-21T10:33:23;4.47;;;2.65;;
35797;SDS011;21918;49.940;7.774;2022-08-21T10:35:59;7.05;;;2.60;;
35797;SDS011;21918;49.940;7.774;2022-08-21T10:41:28;8.98;;;3.08;;
35797;SDS011;21918;49.940;7.774;2022-08-21T10:44:12;4.40;;;2.35;;
35797;SDS011;21918;49.940;7.774;2022-08-21T10:46:51;3.38;;;2.33;;
35797;SDS011;21918;49.940;7.774;2022-08-21T10:49:25;4.40;;;3.03;;
35797;SDS011;21918;49.940;7.774;2022-08-21T10:52:08;4.20;;;2.10;;
35797;SDS011;21918;49.940;7.774;2022-08-21T10:54:49;7.13;;;2.88;;
35797;SDS011;21918;49.940;7.774;2022-08-21T10:57:22;7.25;;;3.22;;
35797;SDS011;21918;49.940;7.774;2022-08-21T10:59:57;4.70;;;2.70;;
35797;SDS011;21918;49.940;7.774;2022-08-21T11:02:31;6.53;;;3.05;;
35797;SDS011;21918;49.940;7.774;2022-08-21T11:05:03;5.55;;;2.53;;
35797;SDS011;21918;49.940;7.774;2022-08-21T11:07:34;3.33;;;2.50;;
35797;SDS011;21918;49.940;7.774;2022-08-21T11:10:05;6.65;;;3.80;;
35797;SDS011;21918;49.940;7.774;2022-08-21T11:12:40;4.80;;;2.45;;
35797;SDS011;21918;49.940;7.774;2022-08-21T11:15:14;6.20;;;2.55;;
35797;SDS011;21918;49.940;7.774;2022-08-21T11:17:50;5.13;;;2.63;;
35797;SDS011;21918;49.940;7.774;2022-08-21T11:20:26;8.63;;;3.13;;
35797;SDS011;21918;49.940;7.774;2022-08-21T11:23:00;5.07;;;2.80;;
35797;SDS011;21918;49.940;7.774;2022-08-21T11:25:35;2.53;;;2.22;;
35797;SDS011;21918;49.940;7.774;2022-08-21T11:28:06;3.72;;;2.58;;
35797;SDS011;21918;49.940;7.774;2022-08-21T11:30:39;2.65;;;2.45;;
35797;SDS011;21918;49.940;7.774;2022-08-21T11:33:36;4.25;;;2.50;;
35797;SDS011;21918;49.940;7.774;2022-08-21T11:36:15;4.72;;;2.55;;
35797;SDS011;21918;49.940;7.774;2022-08-21T11:38:51;6.75;;;3.00;;
35797;SDS011;21918;49.940;7.774;2022-08-21T11:41:28;5.55;;;2.72;;
35797;SDS011;21918;49.940;7.774;2022-08-21T11:44:00;3.60;;;2.33;;
35797;SDS011;21918;49.940;7.774;2022-08-21T11:46:35;3.85;;;2.30;;
35797;SDS011;21918;49.940;7.774;2022-08-21T11:49:13;3.83;;;2.30;;
35797;SDS011;21918;49.940;7.774;2022-08-21T11:52:01;4.32;;;3.03;;
35797;SDS011;21918;49.940;7.774;2022-08-21T11:54:34;7.13;;;2.88;;
35797;SDS011;21918;49.940;7.774;2022-08-21T11:57:07;2.08;;;1.88;;
35797;SDS011;21918;49.940;7.774;2022-08-21T11:59:42;4.93;;;3.10;;
35797;SDS011;21918;49.940;7.774;2022-08-21T12:02:14;9.52;;;2.85;;
35797;SDS011;21918;49.940;7.774;2022-08-21T12:04:46;4.47;;;2.58;;
35797;SDS011;21918;49.940;7.774;2022-08-21T12:07:17;6.95;;;2.50;;
35797;SDS011;21918;49.940;7.774;2022-08-21T12:09:56;2.53;;;2.05;;
35797;SDS011;21918;49.940;7.774;2022-08-21T12:12:26;3.55;;;2.80;;
35797;SDS011;21918;49.940;7.774;2022-08-21T12:15:04;2.38;;;1.95;;
35797;SDS011;21918;49.940;7.774;2022-08-21T12:17:39;3.40;;;2.42;;
35797;SDS011;21918;49.940;7.774;2022-08-21T12:20:18;2.30;;;2.00;;
35797;SDS011;21918;49.940;7.774;2022-08-21T12:22:54;2.67;;;2.28;;
35797;SDS011;21918;49.940;7.774;2022-08-21T12:25:35;2.22;;;1.70;;
35797;SDS011;21918;49.940;7.774;2022-08-21T12:28:06;3.05;;;2.42;;
35797;SDS011;21918;49.940;7.774;2022-08-21T12:30:35;4.70;;;2.50;;
35797;SDS011;21918;49.940;7.774;2022-08-21T12:33:05;4.38;;;2.15;;
35797;SDS011;21918;49.940;7.774;2022-08-21T12:35:45;6.15;;;2.80;;
35797;SDS011;21918;49.940;7.774;2022-08-21T12:38:15;3.08;;;2.33;;
35797;SDS011;21918;49.940;7.774;2022-08-21T12:40:46;2.53;;;2.17;;
35797;SDS011;21918;49.940;7.774;2022-08-21T12:43:18;3.78;;;1.88;;
35797;SDS011;21918;49.940;7.774;2022-08-21T12:45:49;5.78;;;2.30;;
35797;SDS011;21918;49.940;7.774;2022-08-21T12:48:18;4.55;;;2.05;;
35797;SDS011;21918;49.940;7.774;2022-08-21T12:50:50;4.60;;;2.15;;
35797;SDS011;21918;49.940;7.774;2022-08-21T12:53:22;3.10;;;2.45;;
35797;SDS011;21918;49.940;7.774;2022-08-21T12:55:54;3.17;;;1.90;;
35797;SDS011;21918;49.940;7.774;2022-08-21T12:58:26;4.65;;;2.70;;
35797;SDS011;21918;49.940;7.774;2022-08-21T13:00:56;3.17;;;2.15;;
35797;SDS011;21918;49.940;7.774;2022-08-21T13:03:25;3.40;;;2.10;;
35797;SDS011;21918;49.940;7.774;2022-08-21T13:05:53;2.90;;;2.30;;
35797;SDS011;21918;49.940;7.774;2022-08-21T13:08:20;4.53;;;2.22;;
35797;SDS011;21918;49.940;7.774;2022-08-21T13:10:55;3.45;;;1.83;;
35797;SDS011;21918;49.940;7.774;2022-08-21T13:13:27;3.10;;;1.90;;
35797;SDS011;21918;49.940;7.774;2022-08-21T13:15:59;5.68;;;2.03;;
35797;SDS011;21918;49.940;7.774;2022-08-21T13:18:29;3.38;;;2.17;;
35797;SDS011;21918;49.940;7.774;2022-08-21T13:21:04;3.45;;;1.98;;
35797;SDS011;21918;49.940;7.774;2022-08-21T13:23:32;2.90;;;1.92;;
35797;SDS011;21918;49.940;7.774;2022-08-21T13:25:59;2.58;;;2.05;;
35797;SDS011;21918;49.940;7.774;2022-08-21T13:28:33;1.98;;;1.85;;
35797;SDS011;21918;49.940;7.774;2022-08-21T13:31:05;2.72;;;2.08;;
35797;SDS011;21918;49.940;7.774;2022-08-21T13:33:35;2.78;;;1.88;;
35797;SDS011;21918;49.940;7.774;2022-08-21T13:36:06;3.85;;;2.00;;
35797;SDS011;21918;49.940;7.774;2022-08-21T13:38:36;3.85;;;1.95;;
35797;SDS011;21918;49.940;7.774;2022-08-21T13:41:08;3.85;;;1.92;;
35797;SDS011;21918;49.940;7.774;2022-08-21T13:43:50;4.20;;;1.90;;
35797;SDS011;21918;49.940;7.774;2022-08-21T13:46:24;3.67;;;2.10;;
35797;SDS011;21918;49.940;7.774;2022-08-21T13:48:55;2.60;;;1.58;;
35797;SDS011;21918;49.940;7.774;2022-08-21T13:51:22;2.30;;;1.25;;
35797;SDS011;21918;49.940;7.774;2022-08-21T13:53:50;4.15;;;2.20;;
35797;SDS011;21918;49.940;7.774;2022-08-21T13:56:22;3.50;;;2.13;;
35797;SDS011;21918;49.940;7.774;2022-08-21T13:58:52;4.47;;;2.33;;
35797;SDS011;21918;49.940;7.774;2022-08-21T14:01:20;2.30;;;1.70;;
35797;SDS011;21918;49.940;7.774;2022-08-21T14:03:50;4.30;;;2.35;;
35797;SDS011;21918;49.940;7.774;2022-08-21T14:06:23;6.95;;;1.80;;
35797;SDS011;21918;49.940;7.774;2022-08-21T14:08:53;7.53;;;2.13;;
35797;SDS011;21918;49.940;7.774;2022-08-21T14:11:22;2.85;;;1.77;;
35797;SDS011;21918;49.940;7.774;2022-08-21T14:13:49;4.65;;;2.35;;
35797;SDS011;21918;49.940;7.774;2022-08-21T14:16:24;2.05;;;1.73;;
35797;SDS011;21918;49.940;7.774;2022-08-21T14:19:07;3.45;;;2.15;;
35797;SDS011;21918;49.940;7.774;2022-08-21T14:21:38;1.65;;;1.55;;
35797;SDS011;21918;49.940;7.774;2022-08-21T14:24:09;3.45;;;1.83;;
35797;SDS011;21918;49.940;7.774;2022-08-21T14:26:42;2.10;;;1.38;;
35797;SDS011;21918;49.940;7.774;2022-08-21T14:29:14;3.95;;;2.20;;
35797;SDS011;21918;49.940;7.774;2022-08-21T14:31:43;2.35;;;1.90;;
35797;SDS011;21918;49.940;7.774;2022-08-21T14:34:15;2.97;;;1.80;;
35797;SDS011;21918;49.940;7.774;2022-08-21T14:36:43;3.85;;;2.45;;
35797;SDS011;21918;49.940;7.774;2022-08-21T14:39:11;2.13;;;1.90;;
35797;SDS011;21918;49.940;7.774;2022-08-21T14:41:38;4.82;;;1.85;;
35797;SDS011;21918;49.940;7.774;2022-08-21T14:44:04;2.35;;;1.55;;
35797;SDS011;21918;49.940;7.774;2022-08-21T14:46:34;3.00;;;2.05;;
35797;SDS011;21918;49.940;7.774;2022-08-21T14:49:03;4.43;;;2.25;;
35797;SDS011;21918;49.940;7.774;2022-08-21T14:51:30;3.28;;;1.92;;
35797;SDS011;21918;49.940;7.774;2022-08-21T14:53:57;3.42;;;2.17;;
35797;SDS011;21918;49.940;7.774;2022-08-21T14:56:23;2.95;;;1.67;;
35797;SDS011;21918;49.940;7.774;2022-08-21T14:58:51;2.13;;;1.92;;
35797;SDS011;21918;49.940;7.774;2022-08-21T15:01:21;2.25;;;2.05;;
35797;SDS011;21918;49.940;7.774;2022-08-21T15:03:50;4.63;;;1.80;;
35797;SDS011;21918;49.940;7.774;2022-08-21T15:06:18;3.63;;;2.28;;
35797;SDS011;21918;49.940;7.774;2022-08-21T15:08:46;4.68;;;2.40;;
35797;SDS011;21918;49.940;7.774;2022-08-21T15:11:16;5.97;;;1.85;;